Time;durP1;ratioP1;P1;durP2;ratioP2;P2;SDS_P1;SDS_P2;PMS_P1;PMS_P2;Temp;Humidity;BMP_temperature;BMP_pressure;BME280_temperature;BME280_humidity;BME280_pressure;Samples;Min_cycle;Max_cycle;Signal;HPM_P1;HPM_P2
2022/10/21 00:01:23;;;;;;;;;;;;;;;2.84;57.53;102428.92;1700951;84;27685;-60
2022/10/21 00:03:50;;;;;;;;;;;;;;;2.84;57.32;102431.59;1713551;82;25690;-58
2022/10/21 00:06:16;;;;;;;;;;;;;;;2.82;57.37;102436.48;1691573;82;25791;-60
2022/10/21 00:08:43;;;;;;;;;;;;;;;2.78;57.44;102442.83;1702951;82;26313;-60
2022/10/21 00:11:09;;;;;;;;;;;;;;;2.73;57.59;102442.10;1734995;82;25745;-59
2022/10/21 00:13:38;;;;;;;;;;;;;;;2.66;59.53;102438.73;1712745;82;27420;-59
2022/10/21 00:16:10;;;;;;;;;;;;;;;2.54;59.58;102438.22;1735348;82;25740;-60
2022/10/21 00:18:39;;;;;;;;;;;;;;;2.53;58.81;102430.69;1735778;82;25750;-60
2022/10/21 00:21:10;;;;;;;;;;;;;;;2.57;58.81;102429.70;1737156;82;25765;-59
2022/10/21 00:23:37;;;;;;;;;;;;;;;2.62;58.84;102430.42;1719059;82;25792;-60
2022/10/21 00:26:04;;;;;;;;;;;;;;;2.66;59.19;102432.53;1684405;82;27563;-60
2022/10/21 00:28:31;;;;;;;;;;;;;;;2.68;58.98;102424.06;1731689;82;25780;-59
2022/10/21 00:30:57;;;;;;;;;;;;;;;2.67;59.60;102415.68;1701790;82;25851;-59
2022/10/21 00:33:25;;;;;;;;;;;;;;;2.69;59.21;102415.66;1692433;82;25958;-59
2022/10/21 00:35:55;;;;;;;;;;;;;;;2.72;59.07;102409.80;1735699;82;25810;-59
2022/10/21 00:38:21;;;;;;;;;;;;;;;2.77;58.97;102408.33;1734395;82;28428;-60
2022/10/21 00:40:47;;;;;;;;;;;;;;;2.84;59.02;102411.21;1714603;82;25722;-60
2022/10/21 00:43:14;;;;;;;;;;;;;;;2.87;58.58;102413.75;1698757;82;25814;-59
2022/10/21 00:45:41;;;;;;;;;;;;;;;2.86;58.56;102412.05;1688213;82;25828;-59
2022/10/21 00:48:11;;;;;;;;;;;;;;;2.87;58.61;102410.23;1719472;82;25621;-59
2022/10/21 00:50:50;;;;;;;;;;;;;;;2.88;58.63;102402.21;1704851;82;27491;-60
2022/10/21 00:53:17;;;;;;;;;;;;;;;2.83;58.28;102400.16;1695653;82;25766;-59
2022/10/21 00:55:53;;;;;;;;;;;;;;;2.77;58.34;102406.53;1706686;83;25786;-59
2022/10/21 00:58:21;;;;;;;;;;;;;;;2.72;58.67;102396.50;1710335;83;25882;-60
2022/10/21 01:00:49;;;;;;;;;;;;;;;2.67;58.81;102402.39;1715075;82;26469;-60
2022/10/21 01:03:17;;;;;;;;;;;;;;;2.58;59.74;102403.98;1705104;83;27668;-60
2022/10/21 01:05:44;;;;;;;;;;;;;;;2.45;59.20;102396.39;1679944;83;26879;-60
2022/10/21 01:08:10;;;;;;;;;;;;;;;2.41;59.51;102393.86;1700867;83;25746;-59
2022/10/21 01:10:37;;;;;;;;;;;;;;;2.33;59.31;102398.91;1702397;83;27893;-59
2022/10/21 01:13:16;;;;;;;;;;;;;;;2.30;59.28;102399.45;1703536;84;25434;-59
2022/10/21 01:16:04;;;;;;;;;;;;;;;2.26;59.18;102409.77;1708323;82;27550;-60
2022/10/21 01:18:58;;;;;;;;;;;;;;;2.22;59.51;102418.27;1744110;82;25896;-59
2022/10/21 01:21:28;;;;;;;;;;;;;;;2.18;59.46;102406.86;1735615;82;25852;-59
2022/10/21 01:24:03;;;;;;;;;;;;;;;2.18;59.58;102397.57;1701746;82;25899;-59
2022/10/21 01:27:10;;;;;;;;;;;;;;;2.21;59.49;102398.38;1638323;85;25832;-59
2022/10/21 01:29:52;;;;;;;;;;;;;;;2.19;59.72;102401.97;1729871;82;27516;-60
2022/10/21 01:32:25;;;;;;;;;;;;;;;2.19;60.23;102400.64;1745218;82;25918;-59
2022/10/21 01:34:55;;;;;;;;;;;;;;;2.20;59.99;102397.52;1694872;82;25877;-60
2022/10/21 01:37:28;;;;;;;;;;;;;;;2.16;60.26;102395.84;1687417;82;25842;-60
2022/10/21 01:39:58;;;;;;;;;;;;;;;2.14;60.18;102399.02;1718223;82;25741;-60
2022/10/21 01:42:31;;;;;;;;;;;;;;;2.13;60.25;102395.48;1716075;83;27508;-59
2022/10/21 01:45:10;;;;;;;;;;;;;;;2.07;60.20;102394.77;1740689;82;25879;-60
2022/10/21 01:47:40;;;;;;;;;;;;;;;2.04;60.52;102399.70;1739389;82;25479;-59
2022/10/21 01:50:10;;;;;;;;;;;;;;;2.02;60.59;102397.53;1685125;82;25926;-60
2022/10/21 01:52:40;;;;;;;;;;;;;;;2.01;60.52;102401.13;1716265;83;25738;-59
2022/10/21 01:55:09;;;;;;;;;;;;;;;1.98;60.73;102397.22;1678514;83;27554;-60
2022/10/21 01:57:40;;;;;;;;;;;;;;;1.94;60.88;102388.91;1668717;83;26211;-58
2022/10/21 02:00:08;;;;;;;;;;;;;;;1.91;60.71;102392.52;1702239;83;25857;-58
2022/10/21 02:02:38;;;;;;;;;;;;;;;1.86;60.81;102389.13;1676650;84;25817;-59
2022/10/21 02:05:11;;;;;;;;;;;;;;;1.81;61.02;102402.52;1726737;82;25902;-61
2022/10/21 02:07:37;;;;;;;;;;;;;;;1.76;60.94;102397.77;1729476;82;27586;-59
2022/10/21 02:10:05;;;;;;;;;;;;;;;1.70;60.78;102393.95;1741149;82;25676;-60
2022/10/21 02:12:33;;;;;;;;;;;;;;;1.65;60.83;102394.06;1721303;82;25631;-59
2022/10/21 02:15:00;;;;;;;;;;;;;;;1.64;61.13;102398.09;1746129;82;25778;-59
2022/10/21 02:17:26;;;;;;;;;;;;;;;1.63;61.14;102393.70;1729127;83;25720;-58
2022/10/21 02:19:55;;;;;;;;;;;;;;;1.61;61.26;102387.55;1678942;83;27521;-58
2022/10/21 02:22:23;;;;;;;;;;;;;;;1.62;61.63;102390.16;1671642;86;25748;-59
2022/10/21 02:24:55;;;;;;;;;;;;;;;1.64;61.93;102388.81;1685271;83;25731;-59
2022/10/21 02:27:23;;;;;;;;;;;;;;;1.65;61.70;102388.77;1679596;83;25809;-59
2022/10/21 02:29:51;;;;;;;;;;;;;;;1.65;61.69;102390.09;1718274;83;26411;-59
2022/10/21 02:32:38;;;;;;;;;;;;;;;1.65;61.47;102391.88;1718625;83;28489;-60
2022/10/21 02:35:29;;;;;;;;;;;;;;;1.67;61.41;102392.69;1675606;83;25730;-60
2022/10/21 02:38:11;;;;;;;;;;;;;;;1.61;62.46;102387.55;1672460;83;25795;-60
2022/10/21 02:40:47;;;;;;;;;;;;;;;1.49;61.95;102392.23;1714778;83;25768;-59
2022/10/21 02:43:32;;;;;;;;;;;;;;;1.46;61.95;102381.73;1698421;83;25662;-59
2022/10/21 02:46:02;;;;;;;;;;;;;;;1.33;62.34;102401.04;1707355;83;27658;-59
2022/10/21 02:48:32;;;;;;;;;;;;;;;1.25;62.76;102401.20;1715065;83;25745;-59
2022/10/21 02:51:01;;;;;;;;;;;;;;;1.25;62.39;102395.91;1695273;83;25739;-58
2022/10/21 02:53:28;;;;;;;;;;;;;;;1.25;62.04;102395.05;1685859;83;26699;-58
2022/10/21 02:55:54;;;;;;;;;;;;;;;1.18;62.37;102402.27;1704104;82;25682;-59
2022/10/21 02:58:20;;;;;;;;;;;;;;;1.18;62.34;102405.35;1700670;83;27875;-59
2022/10/21 03:00:47;;;;;;;;;;;;;;;1.17;62.60;102401.84;1707978;83;25754;-59
2022/10/21 03:03:13;;;;;;;;;;;;;;;1.20;62.65;102398.23;1724450;83;25728;-59
2022/10/21 03:05:40;;;;;;;;;;;;;;;1.19;62.73;102396.06;1702416;82;25846;-59
2022/10/21 03:08:06;;;;;;;;;;;;;;;1.10;62.89;102390.97;1732887;82;25938;-59
2022/10/21 03:10:33;;;;;;;;;;;;;;;1.07;63.38;102385.73;1720167;82;27473;-59
2022/10/21 03:12:59;;;;;;;;;;;;;;;1.06;63.42;102380.89;1691585;82;25716;-59
2022/10/21 03:15:26;;;;;;;;;;;;;;;1.07;63.31;102380.42;1712806;82;25804;-59
2022/10/21 03:17:53;;;;;;;;;;;;;;;1.08;63.30;102385.67;1742836;82;25928;-59
2022/10/21 03:20:19;;;;;;;;;;;;;;;1.11;63.34;102374.59;1687935;82;25782;-59
2022/10/21 03:22:46;;;;;;;;;;;;;;;1.16;63.93;102378.89;1684916;82;27575;-60
2022/10/21 03:25:12;;;;;;;;;;;;;;;1.17;63.76;102384.61;1705588;82;25756;-61
2022/10/21 03:27:39;;;;;;;;;;;;;;;1.11;63.27;102383.88;1719060;82;25744;-59
2022/10/21 03:30:07;;;;;;;;;;;;;;;1.06;63.24;102390.60;1741864;81;25842;-60
2022/10/21 03:32:34;;;;;;;;;;;;;;;0.98;63.48;102391.23;1740544;82;25721;-59
2022/10/21 03:35:01;;;;;;;;;;;;;;;0.90;63.51;102388.30;1695298;81;27494;-59
2022/10/21 03:37:27;;;;;;;;;;;;;;;0.86;63.46;102384.43;1684626;83;25740;-59
2022/10/21 03:39:54;;;;;;;;;;;;;;;0.86;63.44;102386.61;1715058;82;25808;-58
2022/10/21 03:42:20;;;;;;;;;;;;;;;0.87;63.64;102384.85;1711731;82;26593;-59
2022/10/21 03:44:47;;;;;;;;;;;;;;;0.87;63.56;102390.16;1695398;82;25810;-60
2022/10/21 03:47:13;;;;;;;;;;;;;;;0.84;63.58;102383.58;1685966;83;27485;-61
2022/10/21 03:49:40;;;;;;;;;;;;;;;0.80;63.50;102386.76;1727448;82;25743;-61
2022/10/21 03:52:07;;;;;;;;;;;;;;;0.82;63.50;102387.60;1713107;83;25695;-60
2022/10/21 03:54:33;;;;;;;;;;;;;;;0.84;63.57;102377.85;1739552;82;25866;-60
2022/10/21 03:57:00;;;;;;;;;;;;;;;0.85;63.61;102376.91;1739561;81;25696;-61
2022/10/21 03:59:26;;;;;;;;;;;;;;;0.88;63.93;102367.58;1690770;81;28381;-61
2022/10/21 04:01:52;;;;;;;;;;;;;;;0.93;64.10;102368.81;1741403;82;27288;-61
2022/10/21 04:04:19;;;;;;;;;;;;;;;0.98;64.33;102370.03;1741511;82;25831;-61
2022/10/21 04:06:46;;;;;;;;;;;;;;;0.95;63.77;102369.66;1742668;82;25812;-60
2022/10/21 04:09:12;;;;;;;;;;;;;;;0.92;63.91;102366.63;1721508;81;25751;-60
2022/10/21 04:11:39;;;;;;;;;;;;;;;0.90;64.05;102377.70;1697128;84;27547;-60
2022/10/21 04:14:05;;;;;;;;;;;;;;;0.86;63.68;102376.02;1693032;82;25862;-59
2022/10/21 04:16:33;;;;;;;;;;;;;;;0.78;63.55;102368.69;1727273;82;25796;-60
2022/10/21 04:19:00;;;;;;;;;;;;;;;0.74;63.56;102363.05;1718617;81;25938;-60
2022/10/21 04:21:26;;;;;;;;;;;;;;;0.71;63.77;102360.46;1679194;85;25776;-60
2022/10/21 04:23:53;;;;;;;;;;;;;;;0.66;63.43;102360.56;1686424;82;28421;-60
2022/10/21 04:26:19;;;;;;;;;;;;;;;0.62;63.54;102361.08;1707368;84;25628;-60
2022/10/21 04:28:46;;;;;;;;;;;;;;;0.60;64.10;102363.35;1681543;82;25767;-59
2022/10/21 04:31:14;;;;;;;;;;;;;;;0.57;63.83;102375.32;1705904;82;25873;-59
2022/10/21 04:33:40;;;;;;;;;;;;;;;0.52;63.83;102373.23;1685972;82;25730;-60
2022/10/21 04:36:07;;;;;;;;;;;;;;;0.46;63.81;102368.94;1679298;82;27560;-59
2022/10/21 04:38:33;;;;;;;;;;;;;;;0.45;63.89;102373.80;1679313;84;25745;-58
2022/10/21 04:41:02;;;;;;;;;;;;;;;0.44;64.75;102376.03;1699995;82;25827;-59
2022/10/21 04:43:29;;;;;;;;;;;;;;;0.44;64.23;102370.73;1691130;84;26737;-60
2022/10/21 04:45:56;;;;;;;;;;;;;;;0.43;64.18;102367.23;1732920;82;25931;-57
2022/10/21 04:48:23;;;;;;;;;;;;;;;0.46;64.81;102363.64;1699118;82;27561;-59
2022/10/21 04:50:51;;;;;;;;;;;;;;;0.53;65.05;102367.04;1703226;82;25765;-59
2022/10/21 04:53:19;;;;;;;;;;;;;;;0.51;64.67;102361.75;1710051;82;25709;-60
2022/10/21 04:55:45;;;;;;;;;;;;;;;0.48;64.37;102356.54;1696738;82;26683;-59
2022/10/21 04:58:12;;;;;;;;;;;;;;;0.45;64.48;102353.48;1677319;84;25768;-59
2022/10/21 05:00:38;;;;;;;;;;;;;;;0.49;64.85;102358.72;1686692;82;27559;-59
2022/10/21 05:03:05;;;;;;;;;;;;;;;0.55;65.23;102362.13;1722122;82;25534;-60
2022/10/21 05:05:31;;;;;;;;;;;;;;;0.53;64.72;102348.50;1714961;82;25716;-60
2022/10/21 05:07:58;;;;;;;;;;;;;;;0.54;64.84;102348.92;1728981;83;25834;-60
2022/10/21 05:10:24;;;;;;;;;;;;;;;0.56;64.89;102351.06;1723021;83;25699;-59
2022/10/21 05:12:51;;;;;;;;;;;;;;;0.59;64.98;102365.58;1699695;83;28350;-59
2022/10/21 05:15:18;;;;;;;;;;;;;;;0.60;64.74;102372.16;1687725;84;25833;-60
2022/10/21 05:17:44;;;;;;;;;;;;;;;0.62;64.62;102374.33;1685795;82;25705;-60
2022/10/21 05:20:11;;;;;;;;;;;;;;;0.65;64.70;102360.61;1724646;82;25843;-59
2022/10/21 05:22:37;;;;;;;;;;;;;;;0.67;65.24;102359.66;1742623;82;26436;-60
2022/10/21 05:25:05;;;;;;;;;;;;;;;0.68;64.90;102355.22;1741573;81;27565;-59
2022/10/21 05:27:32;;;;;;;;;;;;;;;0.72;65.05;102354.27;1742680;81;25806;-59
2022/10/21 05:29:58;;;;;;;;;;;;;;;0.82;65.31;102368.16;1732410;81;26008;-59
2022/10/21 05:32:25;;;;;;;;;;;;;;;0.91;65.50;102368.85;1715865;81;25837;-59
2022/10/21 05:34:51;;;;;;;;;;;;;;;1.01;65.34;102368.65;1741389;82;25712;-59
2022/10/21 05:37:17;;;;;;;;;;;;;;;1.07;65.10;102374.69;1739603;82;27479;-60
2022/10/21 05:39:44;;;;;;;;;;;;;;;1.07;64.66;102368.06;1715094;82;25709;-60
2022/10/21 05:42:10;;;;;;;;;;;;;;;1.12;64.67;102367.92;1712963;83;26509;-60
2022/10/21 05:44:37;;;;;;;;;;;;;;;1.18;64.88;102373.10;1712511;82;25853;-59
2022/10/21 05:47:04;;;;;;;;;;;;;;;1.25;64.82;102373.84;1712970;83;25729;-59
2022/10/21 05:49:31;;;;;;;;;;;;;;;1.28;64.93;102368.44;1717603;82;28315;-59
2022/10/21 05:51:57;;;;;;;;;;;;;;;1.40;64.94;102368.16;1702944;82;25722;-59
2022/10/21 05:54:24;;;;;;;;;;;;;;;1.67;65.40;102372.80;1693105;82;25805;-60
2022/10/21 05:56:50;;;;;;;;;;;;;;;1.81;65.15;102370.67;1708629;83;25785;-59
2022/10/21 05:59:17;;;;;;;;;;;;;;;1.90;65.08;102381.95;1715461;82;25801;-60
2022/10/21 06:01:44;;;;;;;;;;;;;;;1.96;65.23;102382.67;1735381;81;28366;-60
2022/10/21 06:04:11;;;;;;;;;;;;;;;2.04;65.00;102378.47;1729951;82;25729;-59
2022/10/21 06:06:37;;;;;;;;;;;;;;;2.11;65.07;102382.69;1710491;82;25804;-59
2022/10/21 06:09:04;;;;;;;;;;;;;;;2.23;65.11;102377.53;1696364;83;25789;-60
2022/10/21 06:11:31;;;;;;;;;;;;;;;2.33;65.09;102372.34;1690176;82;25721;-60
2022/10/21 06:13:57;;;;;;;;;;;;;;;2.42;64.96;102366.39;1738761;82;27649;-61
2022/10/21 06:16:23;;;;;;;;;;;;;;;2.47;64.90;102365.31;1737019;82;25868;-60
2022/10/21 06:18:50;;;;;;;;;;;;;;;2.50;64.51;102377.19;1716966;82;25780;-60
2022/10/21 06:21:16;;;;;;;;;;;;;;;2.55;64.44;102373.55;1679237;85;26486;-60
2022/10/21 06:23:43;;;;;;;;;;;;;;;2.58;64.55;102365.02;1732984;82;25809;-60
2022/10/21 06:26:12;;;;;;;;;;;;;;;2.63;64.48;102360.91;1707586;82;27456;-60
2022/10/21 06:28:40;;;;;;;;;;;;;;;2.69;64.39;102364.69;1723993;82;25748;-59
2022/10/21 06:31:08;;;;;;;;;;;;;;;2.77;64.46;102366.66;1692712;82;25799;-61
2022/10/21 06:33:35;;;;;;;;;;;;;;;2.85;64.13;102358.91;1676902;83;26580;-60
2022/10/21 06:36:02;;;;;;;;;;;;;;;2.93;64.13;102364.86;1680548;82;25766;-60
2022/10/21 06:38:28;;;;;;;;;;;;;;;3.02;64.05;102369.03;1726388;82;29599;-59
2022/10/21 06:41:03;;;;;;;;;;;;;;;3.08;63.88;102375.48;1706804;82;25760;-60
2022/10/21 06:43:30;;;;;;;;;;;;;;;3.17;63.94;102376.52;1703832;82;26358;-60
2022/10/21 06:46:00;;;;;;;;;;;;;;;3.24;63.68;102375.39;1690138;82;25836;-60
2022/10/21 06:48:26;;;;;;;;;;;;;;;3.30;63.55;102367.69;1728246;82;25776;-61
2022/10/21 06:51:02;;;;;;;;;;;;;;;3.34;63.64;102365.35;1705082;82;27470;-60
2022/10/21 06:53:29;;;;;;;;;;;;;;;3.41;63.61;102359.34;1683307;82;25708;-60
2022/10/21 06:56:05;;;;;;;;;;;;;;;3.48;63.55;102363.56;1686448;82;25807;-59
2022/10/21 06:58:32;;;;;;;;;;;;;;;3.54;63.45;102355.84;1735619;82;25833;-60
2022/10/21 07:01:01;;;;;;;;;;;;;;;3.63;63.44;102354.17;1736023;82;25746;-59
2022/10/21 07:03:27;;;;;;;;;;;;;;;3.72;63.37;102362.32;1729127;82;28190;-60
2022/10/21 07:05:58;;;;;;;;;;;;;;;3.83;63.10;102361.94;1689173;82;25769;-60
2022/10/21 07:08:26;;;;;;;;;;;;;;;3.93;62.84;102358.52;1729775;82;25736;-59
2022/10/21 07:10:53;;;;;;;;;;;;;;;4.02;62.59;102372.36;1718114;82;25895;-59
2022/10/21 07:13:21;;;;;;;;;;;;;;;4.13;62.31;102379.11;1681256;82;27484;-59
2022/10/21 07:15:50;;;;;;;;;;;;;;;4.23;62.11;102376.05;1692480;82;27498;-60
2022/10/21 07:18:17;;;;;;;;;;;;;;;4.34;61.94;102378.34;1709204;82;25473;-59
2022/10/21 07:20:43;;;;;;;;;;;;;;;4.47;61.76;102376.54;1736498;82;25732;-59
2022/10/21 07:23:10;;;;;;;;;;;;;;;4.57;61.33;102377.94;1740646;81;26252;-61
2022/10/21 07:25:36;;;;;;;;;;;;;;;4.68;61.33;102380.19;1714541;81;25781;-59
2022/10/21 07:28:02;;;;;;;;;;;;;;;4.77;60.83;102380.32;1711236;83;27533;-59
2022/10/21 07:30:29;;;;;;;;;;;;;;;4.86;60.84;102379.97;1730793;82;25826;-60
2022/10/21 07:32:55;;;;;;;;;;;;;;;5.00;60.75;102384.28;1739487;81;25785;-60
2022/10/21 07:35:22;;;;;;;;;;;;;;;5.13;60.56;102377.14;1716950;82;25873;-60
2022/10/21 07:37:48;;;;;;;;;;;;;;;5.29;59.82;102382.26;1715922;81;25735;-60
2022/10/21 07:40:15;;;;;;;;;;;;;;;5.40;59.27;102382.30;1699947;82;27555;-60
2022/10/21 07:42:42;;;;;;;;;;;;;;;5.53;59.34;102386.17;1681283;83;26411;-59
2022/10/21 07:45:09;;;;;;;;;;;;;;;5.62;58.52;102383.13;1713887;83;25756;-58
2022/10/21 07:47:35;;;;;;;;;;;;;;;5.76;58.59;102387.03;1719839;83;26697;-60
2022/10/21 07:50:02;;;;;;;;;;;;;;;5.91;58.34;102381.51;1716933;83;25795;-59
2022/10/21 07:52:29;;;;;;;;;;;;;;;6.11;57.75;102376.66;1697949;84;27468;-59
2022/10/21 07:54:55;;;;;;;;;;;;;;;6.28;56.36;102377.70;1697513;84;25727;-60
2022/10/21 07:57:22;;;;;;;;;;;;;;;6.40;56.62;102375.34;1694149;83;25736;-60
2022/10/21 07:59:48;;;;;;;;;;;;;;;6.54;56.67;102370.70;1709191;82;26609;-60
2022/10/21 08:02:16;;;;;;;;;;;;;;;6.74;56.77;102371.11;1672738;83;25715;-60
2022/10/21 08:04:42;;;;;;;;;;;;;;;6.95;56.62;102367.52;1669736;85;27590;-59
2022/10/21 08:07:09;;;;;;;;;;;;;;;7.17;56.57;102362.84;1669785;86;26403;-59
2022/10/21 08:09:35;;;;;;;;;;;;;;;7.39;55.20;102359.58;1669829;86;25482;-59
2022/10/21 08:12:02;;;;;;;;;;;;;;;7.57;54.28;102368.52;1682718;83;25889;-60
2022/10/21 08:14:29;;;;;;;;;;;;;;;7.77;53.59;102362.14;1697811;84;25298;-59
2022/10/21 08:16:56;;;;;;;;;;;;;;;7.95;54.18;102349.59;1679399;83;27426;-60
2022/10/21 08:19:28;;;;;;;;;;;;;;;8.17;53.43;102344.45;1720273;83;25666;-60
2022/10/21 08:21:51;;;;;;;;;;;;;;;8.39;51.62;102339.64;1727050;82;25437;-61
2022/10/21 08:24:18;;;;;;;;;;;;;;;8.58;51.65;102340.90;1727031;83;25719;-61
2022/10/21 08:26:44;;;;;;;;;;;;;;;8.76;50.46;102339.48;1698859;82;25751;-61
2022/10/21 08:29:11;;;;;;;;;;;;;;;8.93;49.08;102338.52;1669674;85;27479;-60
2022/10/21 08:31:38;;;;;;;;;;;;;;;9.12;49.84;102329.41;1670458;83;26156;-60
2022/10/21 08:34:05;;;;;;;;;;;;;;;9.34;48.94;102313.80;1676552;84;25707;-61
2022/10/21 08:36:32;;;;;;;;;;;;;;;9.59;48.21;102309.66;1691139;83;26192;-60
2022/10/21 08:38:58;;;;;;;;;;;;;;;9.84;47.86;102303.66;1711147;83;25708;-60
2022/10/21 08:41:31;;;;;;;;;;;;;;;10.06;46.84;102305.51;1720685;82;27533;-61
2022/10/21 08:44:08;;;;;;;;;;;;;;;10.32;47.88;102299.82;1741431;81;25743;-61
2022/10/21 08:46:46;;;;;;;;;;;;;;;10.62;45.37;102292.99;1731551;82;25788;-60
2022/10/21 08:49:22;;;;;;;;;;;;;;;10.76;45.87;102285.86;1684334;84;25794;-60
2022/10/21 08:51:52;;;;;;;;;;;;;;;11.17;46.79;102294.86;1666241;83;25833;-61
2022/10/21 08:54:32;;;;;;;;;;;;;;;11.62;44.63;102294.52;1712823;83;27633;-61
2022/10/21 08:57:01;;;;;;;;;;;;;;;12.50;43.94;102285.20;1721327;82;25752;-61
2022/10/21 08:59:28;;;;;;;;;;;;;;;13.59;43.16;102279.37;1725238;82;25712;-61
2022/10/21 09:02:13;;;;;;;;;;;;;;;14.47;41.08;102278.81;1742677;82;25792;-60
2022/10/21 09:05:03;;;;;;;;;;;;;;;15.28;39.78;102281.19;1696014;83;25770;-61
2022/10/21 09:07:48;;;;;;;;;;;;;;;15.91;39.19;102285.79;1713751;82;28800;-61
2022/10/21 09:10:29;;;;;;;;;;;;;;;16.60;38.22;102280.13;1709438;82;25769;-61
2022/10/21 09:12:59;;;;;;;;;;;;;;;17.25;37.48;102272.88;1741712;82;25799;-62
2022/10/21 09:15:42;;;;;;;;;;;;;;;17.91;36.74;102283.93;1703271;82;26621;-61
2022/10/21 09:18:12;;;;;;;;;;;;;;;18.64;34.95;102280.48;1702000;82;25519;-62
2022/10/21 09:20:45;;;;;;;;;;;;;;;19.07;33.56;102279.44;1736773;82;28348;-61
2022/10/21 09:23:47;;;;;;;;;;;;;;;19.37;33.19;102275.45;1722853;82;25721;-61
2022/10/21 09:26:35;;;;;;;;;;;;;;;19.80;32.55;102272.86;1701263;82;25863;-62
2022/10/21 09:29:22;;;;;;;;;;;;;;;20.59;33.27;102274.63;1726097;82;27001;-61
2022/10/21 09:31:49;;;;;;;;;;;;;;;21.00;31.88;102268.42;1733712;82;25717;-60
2022/10/21 09:34:22;;;;;;;;;;;;;;;21.46;30.92;102252.86;1735704;82;28123;-61
2022/10/21 09:36:49;;;;;;;;;;;;;;;21.72;30.19;102254.06;1716216;81;25836;-61
2022/10/21 09:39:19;;;;;;;;;;;;;;;21.75;30.07;102253.69;1700906;83;25681;-62
2022/10/21 09:41:49;;;;;;;;;;;;;;;21.90;30.78;102256.56;1652017;85;25910;-61
2022/10/21 09:44:19;;;;;;;;;;;;;;;21.95;27.95;102241.84;1718431;82;25615;-61
2022/10/21 09:46:47;;;;;;;;;;;;;;;22.19;29.89;102242.25;1702044;82;27566;-61
2022/10/21 09:49:20;;;;;;;;;;;;;;;22.55;28.38;102235.43;1706881;84;25851;-61
2022/10/21 09:51:47;;;;;;;;;;;;;;;22.86;26.21;102236.43;1727200;82;25777;-61
2022/10/21 09:54:19;;;;;;;;;;;;;;;23.28;27.75;102228.22;1733569;82;25807;-60
2022/10/21 09:56:57;;;;;;;;;;;;;;;23.48;25.66;102222.20;1679137;85;25779;-61
2022/10/21 09:59:24;;;;;;;;;;;;;;;23.49;26.04;102223.92;1679159;85;27541;-61
2022/10/21 10:01:51;;;;;;;;;;;;;;;23.40;25.86;102226.75;1683108;82;25787;-61
2022/10/21 10:04:30;;;;;;;;;;;;;;;23.75;26.05;102225.70;1733501;82;25468;-61
2022/10/21 10:06:59;;;;;;;;;;;;;;;23.94;25.35;102217.96;1697409;82;26150;-60
2022/10/21 10:09:28;;;;;;;;;;;;;;;24.11;25.56;102214.50;1679380;85;25800;-60
2022/10/21 10:11:57;;;;;;;;;;;;;;;24.25;25.83;102214.11;1679081;85;27584;-61
2022/10/21 10:14:33;;;;;;;;;;;;;;;24.53;24.70;102208.75;1651766;85;26449;-61
2022/10/21 10:17:21;;;;;;;;;;;;;;;24.77;24.90;102212.73;1679315;85;25447;-61
2022/10/21 10:20:06;;;;;;;;;;;;;;;24.87;24.73;102200.02;1689012;82;26579;-61
2022/10/21 10:22:37;;;;;;;;;;;;;;;25.04;23.12;102189.05;1715137;82;25732;-61
2022/10/21 10:25:09;;;;;;;;;;;;;;;25.08;22.46;102188.12;1729737;83;27644;-61
2022/10/21 10:27:36;;;;;;;;;;;;;;;24.98;24.06;102182.44;1729797;82;25728;-61
2022/10/21 10:30:05;;;;;;;;;;;;;;;24.99;23.48;102179.17;1736826;82;25737;-61
2022/10/21 10:32:33;;;;;;;;;;;;;;;25.39;24.18;102178.63;1715847;82;25752;-61
2022/10/21 10:35:03;;;;;;;;;;;;;;;25.57;23.30;102166.60;1728724;82;25713;-61
2022/10/21 10:37:35;;;;;;;;;;;;;;;25.85;22.40;102157.42;1730262;82;26908;-61
2022/10/21 10:40:05;;;;;;;;;;;;;;;25.71;22.83;102151.00;1714444;83;26011;-61
2022/10/21 10:42:34;;;;;;;;;;;;;;;25.73;22.31;102141.97;1707790;84;26416;-61
2022/10/21 10:45:04;;;;;;;;;;;;;;;25.78;22.57;102135.84;1680234;82;25999;-62
2022/10/21 10:47:36;;;;;;;;;;;;;;;25.85;22.12;102128.99;1733209;82;25705;-62
2022/10/21 10:50:04;;;;;;;;;;;;;;;25.96;22.03;102131.67;1729280;82;27499;-62
2022/10/21 10:52:31;;;;;;;;;;;;;;;25.98;21.25;102141.47;1700778;82;26017;-62
2022/10/21 10:55:14;;;;;;;;;;;;;;;26.43;22.27;102134.63;1679121;85;25833;-61
2022/10/21 10:57:43;;;;;;;;;;;;;;;26.29;20.03;102130.98;1670333;84;25984;-61
2022/10/21 11:00:21;;;;;;;;;;;;;;;26.55;21.25;102129.65;1698742;82;25708;-61
2022/10/21 11:02:56;;;;;;;;;;;;;;;26.96;21.37;102125.53;1682877;82;27515;-60
2022/10/21 11:05:38;;;;;;;;;;;;;;;26.86;19.90;102124.05;1718502;82;26180;-60
2022/10/21 11:08:26;;;;;;;;;;;;;;;26.85;21.23;102119.59;1700790;83;25705;-61
2022/10/21 11:11:05;;;;;;;;;;;;;;;27.11;20.30;102114.27;1707761;82;25805;-60
2022/10/21 11:13:36;;;;;;;;;;;;;;;27.10;20.09;102110.67;1697968;82;25719;-61
2022/10/21 11:16:15;;;;;;;;;;;;;;;27.14;20.58;102107.78;1678826;85;27570;-61
2022/10/21 11:19:08;;;;;;;;;;;;;;;27.08;20.08;102104.51;1699899;83;25983;-61
2022/10/21 11:21:48;;;;;;;;;;;;;;;26.82;19.85;102095.19;1701423;82;25999;-61
2022/10/21 11:24:39;;;;;;;;;;;;;;;26.52;19.61;102094.19;1735163;82;25831;-61
2022/10/21 11:27:09;;;;;;;;;;;;;;;26.25;20.25;102081.73;1736685;82;25695;-62
2022/10/21 11:29:51;;;;;;;;;;;;;;;25.78;20.00;102080.21;1736861;82;27626;-61
2022/10/21 11:32:27;;;;;;;;;;;;;;;25.30;19.49;102076.89;1705442;82;25722;-60
2022/10/21 11:35:20;;;;;;;;;;;;;;;24.88;19.82;102077.33;1700718;82;25826;-61
2022/10/21 11:38:09;;;;;;;;;;;;;;;24.79;19.36;102071.64;1700480;83;25880;-61
2022/10/21 11:40:38;;;;;;;;;;;;;;;24.31;18.89;102051.63;1698207;82;25746;-61
2022/10/21 11:43:41;;;;;;;;;;;;;;;24.06;20.09;102050.15;1734809;82;27501;-61
2022/10/21 11:46:23;;;;;;;;;;;;;;;23.64;20.52;102050.35;1718853;82;25813;-60
2022/10/21 11:49:02;;;;;;;;;;;;;;;23.46;20.10;102046.66;1707207;84;25721;-61
2022/10/21 11:51:44;;;;;;;;;;;;;;;23.20;19.75;102043.87;1693617;82;26261;-61
2022/10/21 11:54:35;;;;;;;;;;;;;;;22.92;19.63;102041.75;1712028;82;25739;-60
2022/10/21 11:57:08;;;;;;;;;;;;;;;22.61;19.35;102036.41;1678831;84;27464;-61
2022/10/21 11:59:47;;;;;;;;;;;;;;;22.08;19.94;102033.03;1679298;84;25711;-60
2022/10/21 12:02:35;;;;;;;;;;;;;;;21.94;20.91;102031.05;1695447;82;25783;-61
2022/10/21 12:05:08;;;;;;;;;;;;;;;21.72;20.07;102023.48;1723546;82;25732;-61
2022/10/21 12:08:11;;;;;;;;;;;;;;;21.54;19.94;102016.88;1721018;82;25883;-61
2022/10/21 12:10:48;;;;;;;;;;;;;;;21.46;19.88;102014.19;1704184;84;27602;-61
2022/10/21 12:13:30;;;;;;;;;;;;;;;21.21;19.83;102003.33;1694350;84;25843;-61
2022/10/21 12:15:59;;;;;;;;;;;;;;;21.18;20.14;102007.80;1676952;84;25823;-61
2022/10/21 12:18:27;;;;;;;;;;;;;;;21.33;19.62;102001.58;1678419;84;25956;-62
2022/10/21 12:20:55;;;;;;;;;;;;;;;21.55;19.64;101996.69;1689940;84;25832;-61
2022/10/21 12:23:28;;;;;;;;;;;;;;;21.77;19.47;101991.97;1706997;84;27478;-61
2022/10/21 12:26:02;;;;;;;;;;;;;;;21.91;19.68;101993.92;1706147;84;25747;-61
2022/10/21 12:28:38;;;;;;;;;;;;;;;22.14;19.39;101991.19;1706365;84;25903;-62
2022/10/21 12:31:32;;;;;;;;;;;;;;;22.39;19.78;101987.39;1684257;84;26764;-60
2022/10/21 12:33:59;;;;;;;;;;;;;;;22.90;19.09;101983.46;1678335;85;25889;-60
2022/10/21 12:36:44;;;;;;;;;;;;;;;23.35;18.92;101982.10;1656608;85;27571;-61
2022/10/21 12:39:35;;;;;;;;;;;;;;;23.82;18.62;101990.88;1691969;84;25779;-61
2022/10/21 12:42:12;;;;;;;;;;;;;;;24.38;19.25;101990.70;1699879;84;25699;-61
2022/10/21 12:44:47;;;;;;;;;;;;;;;24.80;16.95;101989.42;1700757;83;25875;-60
2022/10/21 12:47:35;;;;;;;;;;;;;;;24.74;17.14;101986.11;1698435;84;25766;-61
2022/10/21 12:50:08;;;;;;;;;;;;;;;25.00;16.55;101989.02;1679746;84;27491;-62
2022/10/21 12:52:37;;;;;;;;;;;;;;;25.34;16.47;101976.80;1675768;84;25770;-61
2022/10/21 12:55:08;;;;;;;;;;;;;;;25.80;16.70;101979.94;1682767;84;25722;-62
2022/10/21 12:57:38;;;;;;;;;;;;;;;26.15;16.46;101974.29;1700413;84;25907;-62
2022/10/21 13:00:29;;;;;;;;;;;;;;;26.75;16.70;101967.86;1700230;84;25837;-61
2022/10/21 13:03:06;;;;;;;;;;;;;;;27.22;16.00;101967.22;1678404;84;27474;-61